Time;durP1;ratioP1;P1;durP2;ratioP2;P2;SDS_P1;SDS_P2;PMS_P1;PMS_P2;Temp;Humidity;BMP_temperature;BMP_pressure;BME280_temperature;BME280_humidity;BME280_pressure;Samples;Min_cycle;Max_cycle;Signal;HPM_P1;HPM_P2
2023/01/20 00:00:16;;;;;;;52.85;27.27;;;;;;;12.51;68.97;99286.44;4848284;29;20362;-64
2023/01/20 00:02:57;;;;;;;44.70;27.60;;;;;;;12.35;69.95;99290.13;4873595;29;20041;-64
2023/01/20 00:05:57;;;;;;;45.78;28.27;;;;;;;12.33;70.22;99292.19;4835929;29;20069;-63
2023/01/20 00:08:39;;;;;;;49.38;26.88;;;;;;;12.36;68.64;99281.16;4841427;29;20057;-65
2023/01/20 00:11:27;;;;;;;40.97;25.20;;;;;;;12.35;65.30;99279.50;4871398;29;21453;-63
2023/01/20 00:14:10;;;;;;;40.00;23.50;;;;;;;12.36;65.74;99278.50;4858776;29;20057;-65
2023/01/20 00:16:59;;;;;;;37.92;24.17;;;;;;;12.49;67.42;99275.97;4854684;29;20132;-63
2023/01/20 00:19:47;;;;;;;42.90;26.02;;;;;;;12.51;65.91;99273.13;4857896;29;20061;-63
2023/01/20 00:22:29;;;;;;;42.30;25.20;;;;;;;12.36;65.39;99272.38;4855134;29;20057;-64
2023/01/20 00:25:20;;;;;;;41.50;26.02;;;;;;;12.21;66.00;99266.31;4872447;29;20084;-63
2023/01/20 00:28:02;;;;;;;41.28;25.50;;;;;;;12.34;63.82;99269.09;4865992;29;20054;-62
2023/01/20 00:30:57;;;;;;;38.78;24.98;;;;;;;12.21;63.07;99269.78;4863332;29;20048;-63
2023/01/20 00:33:33;;;;;;;43.35;23.33;;;;;;;12.44;63.89;99265.09;4865342;29;20504;-63
2023/01/20 00:36:32;;;;;;;38.70;23.25;;;;;;;12.43;63.59;99265.31;4863221;29;20042;-61
2023/01/20 00:39:21;;;;;;;34.13;21.88;;;;;;;12.36;61.54;99261.75;4855270;29;20057;-61
2023/01/20 00:42:03;;;;;;;39.97;23.42;;;;;;;12.29;63.57;99258.22;4872618;29;20072;-61
2023/01/20 00:45:00;;;;;;;34.42;19.00;;;;;;;12.11;59.64;99250.69;4853881;29;20053;-61
2023/01/20 00:47:35;;;;;;;33.78;19.27;;;;;;;12.29;60.74;99253.72;4837730;29;20057;-61
2023/01/20 00:50:31;;;;;;;35.50;20.65;;;;;;;12.44;62.20;99256.31;4849815;29;20053;-63
2023/01/20 00:53:06;;;;;;;35.38;19.15;;;;;;;12.39;60.93;99254.22;4859726;29;20335;-61
2023/01/20 00:55:56;;;;;;;36.70;19.60;;;;;;;12.51;61.18;99259.84;4870509;29;20052;-62
2023/01/20 00:58:48;;;;;;;29.73;18.77;;;;;;;12.28;60.15;99265.34;4850549;29;20056;-61
2023/01/20 01:01:29;;;;;;;34.00;20.10;;;;;;;12.30;62.46;99260.69;4871494;29;20077;-62
2023/01/20 01:04:19;;;;;;;33.88;18.30;;;;;;;12.29;59.16;99263.53;4858901;29;20061;-61
2023/01/20 01:07:01;;;;;;;32.40;18.40;;;;;;;12.06;59.17;99261.03;4863770;29;20045;-63
2023/01/20 01:09:50;;;;;;;27.38;17.85;;;;;;;11.99;59.63;99255.66;4845682;29;20052;-62
2023/01/20 01:12:32;;;;;;;32.95;19.83;;;;;;;11.89;60.59;99268.41;4853468;29;20060;-62
2023/01/20 01:15:21;;;;;;;29.42;17.35;;;;;;;12.00;60.55;99275.06;4861809;29;20057;-62
2023/01/20 01:18:04;;;;;;;33.38;18.02;;;;;;;12.02;60.87;99273.06;4859741;29;20105;-62
2023/01/20 01:20:53;;;;;;;33.65;17.65;;;;;;;11.95;58.30;99264.22;4850446;29;20053;-63
2023/01/20 01:23:35;;;;;;;28.83;17.27;;;;;;;11.90;58.91;99271.91;4855310;29;20113;-63
2023/01/20 01:26:24;;;;;;;32.63;18.27;;;;;;;11.82;60.36;99283.44;4864489;29;20144;-65
2023/01/20 01:29:05;;;;;;;28.63;18.08;;;;;;;11.78;58.08;99290.13;4846593;29;20130;-63
2023/01/20 01:31:55;;;;;;;30.17;18.75;;;;;;;11.82;60.58;99295.88;4863310;29;20084;-61
2023/01/20 01:34:36;;;;;;;37.30;20.23;;;;;;;11.88;58.94;99295.97;4868767;29;20057;-61
2023/01/20 01:37:25;;;;;;;33.58;20.13;;;;;;;11.84;58.99;99304.47;4854309;29;20049;-64
2023/01/20 01:40:09;;;;;;;36.08;20.10;;;;;;;11.98;58.53;99311.59;4835968;29;20102;-61
2023/01/20 01:42:58;;;;;;;38.25;20.90;;;;;;;12.00;58.44;99309.56;4860414;29;20041;-61
2023/01/20 01:45:39;;;;;;;40.20;22.33;;;;;;;12.20;58.95;99309.81;4860692;29;20057;-62
2023/01/20 01:48:45;;;;;;;43.40;24.20;;;;;;;12.12;59.57;99308.94;4848277;29;20136;-62
2023/01/20 01:51:40;;;;;;;42.72;23.15;;;;;;;12.30;58.29;99300.53;4834636;29;20095;-61
2023/01/20 01:54:32;;;;;;;39.58;24.20;;;;;;;12.03;59.44;99303.91;4835433;29;20046;-61
2023/01/20 01:57:28;;;;;;;42.65;23.88;;;;;;;11.91;59.17;99310.69;4870520;29;20053;-61
2023/01/20 02:00:18;;;;;;;46.70;23.05;;;;;;;11.96;59.76;99306.47;4854283;29;20059;-62
2023/01/20 02:03:07;;;;;;;42.85;24.02;;;;;;;11.99;60.33;99297.34;4860914;29;20056;-61
2023/01/20 02:06:02;;;;;;;45.03;25.98;;;;;;;12.00;59.70;99301.59;4852609;29;20717;-62
2023/01/20 02:08:39;;;;;;;46.00;25.27;;;;;;;12.02;58.90;99300.44;4848835;29;20068;-62
2023/01/20 02:11:36;;;;;;;46.25;25.02;;;;;;;11.94;60.47;99297.88;4861226;29;20089;-61
2023/01/20 02:14:12;;;;;;;49.67;27.17;;;;;;;12.17;59.09;99302.22;4855975;29;20053;-63
2023/01/20 02:17:21;;;;;;;45.30;25.15;;;;;;;12.42;58.90;99301.66;4856347;29;20049;-62
2023/01/20 02:20:07;;;;;;;47.78;27.35;;;;;;;12.27;60.34;99295.59;4852876;29;20041;-62
2023/01/20 02:23:14;;;;;;;49.47;28.13;;;;;;;12.22;62.49;99313.09;4865474;29;20148;-62
2023/01/20 02:26:16;;;;;;;49.22;28.13;;;;;;;12.14;61.62;99327.31;4855425;29;20129;-61
2023/01/20 02:29:38;;;;;;;50.15;28.45;;;;;;;12.05;61.77;99333.72;4853253;29;20822;-61
2023/01/20 02:32:18;;;;;;;54.63;30.73;;;;;;;12.06;62.51;99343.34;4867124;29;20063;-63
2023/01/20 02:35:26;;;;;;;59.97;33.53;;;;;;;12.04;60.82;99353.31;4874286;29;20136;-61
2023/01/20 02:38:17;;;;;;;62.97;34.75;;;;;;;12.07;60.71;99363.59;4853466;29;20048;-63
2023/01/20 02:41:22;;;;;;;55.17;32.60;;;;;;;12.14;60.69;99369.78;4862842;29;20547;-62
2023/01/20 02:44:23;;;;;;;66.38;35.40;;;;;;;12.32;61.42;99367.56;4855748;29;20071;-62
2023/01/20 02:47:30;;;;;;;63.10;34.20;;;;;;;12.39;59.81;99370.28;4855187;29;20053;-61
2023/01/20 02:50:40;;;;;;;61.75;34.33;;;;;;;12.28;61.04;99384.03;4825649;29;20048;-62
2023/01/20 02:53:53;;;;;;;67.53;36.08;;;;;;;12.61;61.33;99395.88;4837031;29;20449;-63
2023/01/20 02:56:31;;;;;;;69.72;36.40;;;;;;;12.60;60.87;99392.41;4849701;29;20049;-62
2023/01/20 02:59:31;;;;;;;69.70;36.20;;;;;;;12.52;61.88;99399.66;4853212;29;20063;-63
2023/01/20 03:02:19;;;;;;;66.72;35.60;;;;;;;12.41;60.47;99395.66;4854640;29;20121;-63
2023/01/20 03:05:14;;;;;;;68.25;36.90;;;;;;;12.52;61.25;99405.78;4850399;29;20440;-63
2023/01/20 03:08:00;;;;;;;65.90;37.97;;;;;;;12.41;60.90;99397.47;4862788;29;20053;-62
2023/01/20 03:10:52;;;;;;;71.97;37.47;;;;;;;12.33;61.66;99397.59;4823942;29;20367;-63
2023/01/20 03:14:14;;;;;;;63.40;38.42;;;;;;;12.36;61.79;99411.31;4836692;29;20110;-63
2023/01/20 03:17:03;;;;;;;77.50;39.65;;;;;;;12.31;62.36;99404.91;4859747;29;20342;-62
2023/01/20 03:19:52;;;;;;;65.25;39.25;;;;;;;12.44;61.53;99400.56;4836194;29;20049;-63
2023/01/20 03:22:34;;;;;;;71.28;39.25;;;;;;;12.71;61.33;99399.03;4840451;29;20061;-63
2023/01/20 03:25:25;;;;;;;63.97;37.50;;;;;;;12.49;61.80;99395.53;4852738;29;20793;-65
2023/01/20 03:28:07;;;;;;;67.57;39.15;;;;;;;12.37;62.57;99401.53;4856069;29;20797;-63
2023/01/20 03:30:59;;;;;;;64.10;38.00;;;;;;;12.47;61.84;99400.22;4860402;29;20156;-63
2023/01/20 03:33:42;;;;;;;63.38;38.30;;;;;;;12.52;61.94;99412.94;4853906;29;20053;-64
2023/01/20 03:36:33;;;;;;;67.53;37.55;;;;;;;12.56;61.51;99423.03;4849553;29;20076;-63
2023/01/20 03:39:30;;;;;;;73.88;39.75;;;;;;;12.58;61.31;99428.94;4840439;29;20144;-63
2023/01/20 03:42:37;;;;;;;68.53;39.05;;;;;;;12.74;60.87;99429.75;4852766;29;20130;-64
2023/01/20 03:45:45;;;;;;;81.05;40.38;;;;;;;12.79;61.17;99443.28;4853285;29;20059;-64
2023/01/20 03:48:55;;;;;;;71.88;40.78;;;;;;;12.78;62.09;99447.78;4864656;29;20522;-63
2023/01/20 03:52:06;;;;;;;75.15;42.10;;;;;;;12.75;61.63;99452.63;4859510;29;20068;-64
2023/01/20 03:54:56;;;;;;;79.00;43.58;;;;;;;12.69;61.40;99448.09;4852585;29;20370;-64
2023/01/20 03:58:04;;;;;;;87.38;44.20;;;;;;;12.69;61.38;99461.38;4860561;29;20045;-65
2023/01/20 04:00:45;;;;;;;83.18;44.40;;;;;;;12.72;61.31;99461.00;4821600;29;20708;-63
2023/01/20 04:03:45;;;;;;;85.50;46.17;;;;;;;12.74;61.92;99462.47;4854869;29;20587;-62
2023/01/20 04:06:25;;;;;;;81.68;45.78;;;;;;;12.79;61.52;99465.34;4852641;29;20057;-62
2023/01/20 04:09:30;;;;;;;84.45;44.92;;;;;;;12.83;61.16;99461.34;4853130;29;20133;-64
2023/01/20 04:12:05;;;;;;;80.97;43.58;;;;;;;12.89;61.05;99473.03;4858797;29;20061;-63
2023/01/20 04:14:54;;;;;;;90.97;44.00;;;;;;;12.95;61.21;99472.28;4855992;29;20053;-65
2023/01/20 04:17:45;;;;;;;79.45;45.83;;;;;;;13.05;61.08;99486.09;4849983;29;20548;-64
2023/01/20 04:20:33;;;;;;;84.38;46.13;;;;;;;13.11;62.37;99489.84;4853356;29;20085;-63
2023/01/20 04:23:30;;;;;;;92.82;49.45;;;;;;;13.17;60.87;99489.94;4856299;29;20061;-65
2023/01/20 04:26:19;;;;;;;84.07;47.72;;;;;;;13.25;61.04;99499.63;4845084;29;20050;-63
2023/01/20 04:29:07;;;;;;;90.82;50.35;;;;;;;13.25;59.60;99503.09;4869682;29;20068;-62
2023/01/20 04:32:00;;;;;;;87.05;48.78;;;;;;;13.20;59.06;99513.50;4861998;29;20080;-65
2023/01/20 04:34:48;;;;;;;90.28;49.03;;;;;;;13.22;58.30;99508.00;4806423;29;20133;-63
2023/01/20 04:37:37;;;;;;;84.68;47.55;;;;;;;13.28;57.76;99510.69;4844250;29;20045;-62
2023/01/20 04:40:19;;;;;;;86.35;47.90;;;;;;;13.25;58.24;99510.25;4856643;29;20053;-63
2023/01/20 04:43:17;;;;;;;79.22;45.47;;;;;;;13.28;58.43;99517.84;4860309;29;20050;-64
2023/01/20 04:45:53;;;;;;;87.70;46.03;;;;;;;13.27;58.27;99522.38;4837143;29;20085;-62
2023/01/20 04:48:50;;;;;;;99.20;46.90;;;;;;;13.27;59.14;99522.38;4864496;29;20434;-62
2023/01/20 04:51:26;;;;;;;79.72;43.35;;;;;;;13.25;57.43;99526.22;4853635;29;20282;-62
2023/01/20 04:54:15;;;;;;;86.53;45.23;;;;;;;13.28;57.64;99529.31;4855120;29;20132;-62
2023/01/20 04:57:05;;;;;;;77.00;42.95;;;;;;;13.34;56.54;99533.06;4855221;29;20360;-62
2023/01/20 04:59:46;;;;;;;78.03;45.28;;;;;;;13.41;57.85;99539.25;4852408;29;20056;-62
2023/01/20 05:02:35;;;;;;;79.18;43.97;;;;;;;13.40;57.36;99535.81;4852765;29;20137;-63
2023/01/20 05:05:17;;;;;;;84.80;43.83;;;;;;;13.57;57.21;99547.00;4855331;29;20333;-63
2023/01/20 05:08:07;;;;;;;76.07;44.40;;;;;;;13.49;57.63;99545.31;4847470;29;20045;-62
2023/01/20 05:10:48;;;;;;;81.38;43.53;;;;;;;13.47;57.14;99544.66;4852988;29;20098;-63
2023/01/20 05:13:38;;;;;;;78.00;43.10;;;;;;;13.48;56.75;99551.63;4860016;29;20075;-63
2023/01/20 05:16:23;;;;;;;77.10;42.28;;;;;;;13.62;57.80;99546.44;4860242;29;20133;-63
2023/01/20 05:19:12;;;;;;;87.57;46.33;;;;;;;13.68;58.66;99556.31;4858599;29;20053;-63
2023/01/20 05:21:54;;;;;;;81.53;43.63;;;;;;;13.78;57.95;99554.16;4871944;29;20053;-65
2023/01/20 05:24:44;;;;;;;83.53;45.65;;;;;;;13.97;57.86;99558.00;4854174;29;20042;-65
2023/01/20 05:27:26;;;;;;;79.47;45.83;;;;;;;14.05;58.46;99547.19;4848700;29;20163;-62
2023/01/20 05:30:15;;;;;;;93.57;48.63;;;;;;;13.93;57.51;99550.41;4850771;29;20053;-63
2023/01/20 05:32:57;;;;;;;96.47;51.92;;;;;;;13.88;57.40;99549.31;4850744;29;20158;-62
2023/01/20 05:35:47;;;;;;;94.35;51.20;;;;;;;14.00;57.06;99536.28;4852915;29;20077;-62
2023/01/20 05:38:29;;;;;;;92.57;52.35;;;;;;;14.04;57.39;99546.38;4853049;29;20048;-62
2023/01/20 05:41:18;;;;;;;104.07;54.40;;;;;;;14.05;57.37;99542.69;4867250;29;20045;-61
2023/01/20 05:44:01;;;;;;;100.95;54.63;;;;;;;14.19;57.88;99536.44;4857014;29;20057;-60
2023/01/20 05:46:49;;;;;;;110.28;57.17;;;;;;;14.33;56.76;99534.69;4851741;29;20599;-61
2023/01/20 05:49:32;;;;;;;107.18;57.30;;;;;;;14.25;55.90;99530.31;4862904;29;20417;-63
2023/01/20 05:52:21;;;;;;;105.25;59.88;;;;;;;14.22;56.77;99524.56;4856918;29;20057;-61
2023/01/20 05:55:03;;;;;;;108.53;60.72;;;;;;;14.32;56.84;99523.19;4853001;29;20102;-62
2023/01/20 05:57:58;;;;;;;109.03;60.47;;;;;;;14.31;55.41;99521.53;4853950;29;20087;-61
2023/01/20 06:00:47;;;;;;;105.97;58.20;;;;;;;14.39;56.02;99521.41;4854321;29;20046;-61
2023/01/20 06:03:36;;;;;;;105.93;56.97;;;;;;;14.33;55.55;99527.53;4855483;29;20145;-61
2023/01/20 06:06:18;;;;;;;105.80;57.55;;;;;;;14.38;55.64;99530.41;4855312;29;20060;-61
2023/01/20 06:09:09;;;;;;;97.88;55.28;;;;;;;14.45;55.34;99511.00;4853374;29;20053;-60
2023/01/20 06:11:51;;;;;;;98.55;56.72;;;;;;;14.55;55.95;99520.28;4848406;29;20061;-63
2023/01/20 06:14:40;;;;;;;89.88;54.08;;;;;;;14.51;53.75;99523.53;4855267;29;20126;-60
2023/01/20 06:17:22;;;;;;;81.93;50.60;;;;;;;14.53;54.31;99518.81;4855967;29;20133;-62
2023/01/20 06:20:11;;;;;;;89.10;48.85;;;;;;;14.43;54.46;99516.50;4855453;29;20046;-61
2023/01/20 06:22:55;;;;;;;83.65;49.22;;;;;;;14.42;53.79;99514.88;4839722;29;20044;-62
2023/01/20 06:25:43;;;;;;;80.40;45.50;;;;;;;14.37;53.60;99518.13;4854546;29;20084;-61
2023/01/20 06:28:26;;;;;;;68.50;41.53;;;;;;;14.37;52.86;99510.16;4854444;29;20053;-62
2023/01/20 06:31:18;;;;;;;76.28;39.85;;;;;;;14.32;52.64;99509.88;4855188;29;20482;-61
2023/01/20 06:34:00;;;;;;;72.20;37.38;;;;;;;14.31;53.12;99508.22;4860034;29;20136;-62
2023/01/20 06:36:49;;;;;;;62.17;36.20;;;;;;;14.30;53.04;99503.09;4867915;29;20053;-62
2023/01/20 06:39:31;;;;;;;53.55;32.92;;;;;;;14.28;52.17;99494.47;4845180;29;20046;-61
2023/01/20 06:42:21;;;;;;;58.72;32.05;;;;;;;14.43;52.75;99484.53;4844814;29;20057;-63
2023/01/20 06:45:03;;;;;;;57.45;30.40;;;;;;;14.43;52.92;99483.72;4862764;29;20075;-63
2023/01/20 06:47:55;;;;;;;57.92;31.42;;;;;;;14.43;52.62;99478.41;4854284;29;20053;-61
2023/01/20 06:50:37;;;;;;;64.78;32.80;;;;;;;14.42;54.19;99479.41;4850826;29;20054;-62
2023/01/20 06:53:26;;;;;;;60.03;35.72;;;;;;;14.30;53.61;99477.25;4850469;29;20359;-64
2023/01/20 06:56:11;;;;;;;66.82;36.83;;;;;;;14.33;53.02;99476.88;4852970;29;20714;-64
2023/01/20 06:59:05;;;;;;;66.93;35.72;;;;;;;14.30;54.17;99471.09;4853596;29;20872;-62
2023/01/20 07:01:55;;;;;;;63.58;35.60;;;;;;;14.23;54.51;99465.75;4805306;29;20050;-63
2023/01/20 07:04:37;;;;;;;66.03;37.50;;;;;;;14.17;55.26;99455.06;4852095;29;20045;-62
2023/01/20 07:07:26;;;;;;;68.55;35.13;;;;;;;14.19;54.75;99453.03;4848725;29;20176;-62
2023/01/20 07:10:16;;;;;;;64.97;33.92;;;;;;;14.15;55.47;99455.28;4845739;29;20113;-62
2023/01/20 07:13:05;;;;;;;46.92;27.80;;;;;;;14.05;53.55;99440.66;4847744;29;20053;-61
2023/01/20 07:19:22;;;;;;;64.18;30.65;;;;;;;13.98;56.08;99451.28;4836738;29;20410;-62
2023/01/20 07:22:17;;;;;;;58.80;28.60;;;;;;;14.12;56.86;99442.31;4833470;29;20113;-63
2023/01/20 07:24:52;;;;;;;55.85;31.52;;;;;;;14.08;56.49;99440.25;4848813;29;20058;-64
2023/01/20 07:27:41;;;;;;;64.45;31.20;;;;;;;14.00;56.09;99438.56;4847041;29;20386;-64
2023/01/20 07:30:31;;;;;;;53.22;29.63;;;;;;;14.00;58.62;99435.91;4846929;29;20137;-63
2023/01/20 07:33:12;;;;;;;56.05;31.95;;;;;;;13.89;60.44;99442.63;4830691;29;20049;-64
2023/01/20 07:36:01;;;;;;;51.80;29.92;;;;;;;13.76;60.40;99437.19;4845981;29;20056;-62
2023/01/20 07:38:47;;;;;;;54.08;30.85;;;;;;;13.55;61.96;99429.25;4847110;29;20618;-62
2023/01/20 07:41:36;;;;;;;51.40;29.27;;;;;;;13.52;62.21;99428.84;4844176;29;20068;-61
2023/01/20 07:44:21;;;;;;;44.88;28.35;;;;;;;13.45;62.41;99429.59;4845264;29;20311;-63
2023/01/20 07:47:10;;;;;;;49.55;29.58;;;;;;;13.52;62.84;99428.84;4846683;29;20056;-59
2023/01/20 07:53:45;;;;;;;51.30;31.08;;;;;;;13.71;63.64;99406.88;4836709;29;20057;-63
2023/01/20 07:56:35;;;;;;;54.45;32.08;;;;;;;13.78;62.89;99413.03;4846469;29;20073;-60
2023/01/20 07:59:30;;;;;;;53.13;32.45;;;;;;;13.83;62.92;99406.13;4831996;29;20518;-62
2023/01/20 08:02:08;;;;;;;62.30;35.42;;;;;;;13.92;62.52;99410.28;4843478;29;20049;-60
2023/01/20 08:04:57;;;;;;;56.50;33.88;;;;;;;14.20;62.53;99409.38;4846260;29;20050;-62
2023/01/20 08:07:40;;;;;;;58.17;34.83;;;;;;;14.17;61.17;99407.94;4825025;29;20061;-62
2023/01/20 08:10:36;;;;;;;53.47;35.33;;;;;;;14.22;61.78;99407.34;4818508;29;20049;-62
2023/01/20 08:13:11;;;;;;;60.05;35.33;;;;;;;14.22;61.12;99400.16;4844968;29;20064;-62
2023/01/20 08:16:04;;;;;;;70.85;35.38;;;;;;;14.35;62.03;99405.56;4845788;29;20054;-62
2023/01/20 08:18:48;;;;;;;54.45;34.95;;;;;;;14.57;62.44;99402.78;4842439;29;20081;-61
2023/01/20 08:21:37;;;;;;;49.92;33.55;;;;;;;14.67;62.30;99401.38;4845924;29;20137;-63
2023/01/20 08:24:19;;;;;;;56.45;29.15;;;;;;;14.76;60.55;99402.84;4830984;29;20049;-62
2023/01/20 08:27:14;;;;;;;46.17;26.52;;;;;;;14.72;60.48;99403.44;4848108;29;20053;-64
2023/01/20 08:29:53;;;;;;;43.35;28.38;;;;;;;14.87;60.65;99393.41;4848104;29;20053;-62
2023/01/20 08:32:47;;;;;;;39.65;25.80;;;;;;;14.94;59.24;99385.41;4848516;29;20062;-61
2023/01/20 08:35:23;;;;;;;39.83;24.08;;;;;;;15.13;59.75;99382.78;4847653;29;20141;-60
2023/01/20 08:38:18;;;;;;;31.83;22.63;;;;;;;14.66;58.37;99390.91;4832228;29;20521;-59
2023/01/20 08:40:54;;;;;;;31.90;20.90;;;;;;;14.88;57.29;99383.56;4832734;29;20065;-61
2023/01/20 08:43:49;;;;;;;37.40;22.45;;;;;;;14.84;57.35;99378.63;4847809;29;20141;-61
2023/01/20 08:46:25;;;;;;;35.15;21.27;;;;;;;14.99;59.01;99372.31;4849377;29;20472;-60
2023/01/20 08:49:16;;;;;;;34.15;19.27;;;;;;;14.95;56.55;99369.22;4846725;29;20319;-61
2023/01/20 08:51:58;;;;;;;38.85;20.45;;;;;;;15.17;55.43;99365.34;4847970;29;20141;-59
2023/01/20 08:54:52;;;;;;;36.63;22.13;;;;;;;15.14;55.18;99371.06;4846857;29;20068;-59
2023/01/20 08:57:34;;;;;;;45.17;24.80;;;;;;;15.15;55.47;99363.88;4842518;29;20642;-61
2023/01/20 09:00:30;;;;;;;43.97;24.48;;;;;;;15.41;55.01;99363.03;4844858;29;20176;-62
2023/01/20 09:03:06;;;;;;;41.88;23.80;;;;;;;15.33;56.33;99361.41;4846045;29;20049;-60
2023/01/20 09:05:55;;;;;;;39.75;23.15;;;;;;;15.02;54.06;99366.53;4848299;29;20072;-61
2023/01/20 09:08:36;;;;;;;42.08;23.38;;;;;;;15.20;55.40;99353.41;4846383;29;20061;-56
2023/01/20 09:11:26;;;;;;;33.72;20.10;;;;;;;15.29;54.34;99360.19;4845933;29;20094;-61
2023/01/20 09:14:14;;;;;;;24.70;14.90;;;;;;;15.28;51.90;99353.19;4845204;29;20053;-64
2023/01/20 09:16:57;;;;;;;28.90;15.07;;;;;;;15.43;52.91;99363.66;4847154;29;20561;-62
2023/01/20 09:19:46;;;;;;;27.40;14.73;;;;;;;15.37;52.85;99356.47;4847036;29;20106;-63
2023/01/20 09:22:27;;;;;;;30.35;16.30;;;;;;;15.40;52.52;99351.53;4850481;29;20077;-64
2023/01/20 09:25:17;;;;;;;31.95;16.55;;;;;;;15.39;52.08;99355.25;4851210;29;20148;-63
2023/01/20 09:28:00;;;;;;;28.92;16.27;;;;;;;15.40;53.40;99350.75;4832804;29;20049;-63
2023/01/20 09:30:49;;;;;;;39.50;20.25;;;;;;;15.20;53.33;99345.41;4850196;29;20358;-64
2023/01/20 09:33:34;;;;;;;35.20;20.15;;;;;;;15.17;53.38;99345.84;4849081;29;20136;-61
2023/01/20 09:36:25;;;;;;;36.00;20.45;;;;;;;15.28;53.89;99358.53;4849965;29;20745;-63
2023/01/20 09:45:37;;;;;;;33.08;19.17;;;;;;;15.51;53.28;99342.13;4848935;29;20129;-65
2023/01/20 09:55:25;;;;;;;27.48;13.50;;;;;;;15.61;53.35;99355.88;4850154;29;20072;-61
2023/01/20 09:58:13;;;;;;;21.75;12.70;;;;;;;15.65;54.57;99357.91;4846876;29;20049;-64
2023/01/20 10:01:31;;;;;;;22.42;11.55;;;;;;;15.18;54.83;99360.78;4840484;29;20061;-62
2023/01/20 10:04:29;;;;;;;18.92;12.02;;;;;;;15.13;55.60;99352.59;4831783;29;20057;-58
2023/01/20 10:07:27;;;;;;;21.02;12.18;;;;;;;15.23;55.87;99356.47;4817836;29;20049;-62
2023/01/20 10:10:25;;;;;;;19.65;10.80;;;;;;;15.09;55.58;99359.38;4849527;29;20053;-59
2023/01/20 10:13:33;;;;;;;19.65;10.80;;;;;;;15.04;54.86;99357.34;4847706;29;20132;-62
2023/01/20 10:16:32;;;;;;;23.33;11.68;;;;;;;15.12;55.66;99358.97;4836063;29;20496;-62
2023/01/20 10:19:47;;;;;;;22.27;13.35;;;;;;;15.25;57.21;99354.44;4849445;29;20478;-62
2023/01/20 10:22:42;;;;;;;;;;;;;;;14.80;56.65;99360.59;4835161;29;20058;-63
2023/01/20 10:25:32;;;;;;;25.05;14.95;;;;;;;14.91;57.37;99361.84;4848622;29;19932;-64
2023/01/20 10:28:31;;;;;;;23.02;13.93;;;;;;;14.90;55.22;99361.00;4848725;29;20076;-60
2023/01/20 10:31:33;;;;;;;32.10;14.45;;;;;;;14.63;56.80;99368.16;4848873;29;20064;-61
2023/01/20 10:34:15;;;;;;;31.02;15.70;;;;;;;14.66;56.31;99359.72;4847955;29;20145;-62
2023/01/20 10:37:10;;;;;;;24.13;14.63;;;;;;;14.76;58.72;99359.34;4848809;29;20053;-62
2023/01/20 10:40:25;;;;;;;24.60;15.55;;;;;;;14.67;57.87;99360.56;4857133;29;20053;-62
2023/01/20 10:43:15;;;;;;;30.10;16.77;;;;;;;14.41;58.21;99361.31;4832214;29;20546;-60
2023/01/20 10:46:20;;;;;;;30.33;16.92;;;;;;;14.63;58.66;99362.81;4846595;29;20125;-64
2023/01/20 10:49:39;;;;;;;31.60;18.50;;;;;;;14.45;58.63;99367.91;4847347;29;20132;-64
2023/01/20 10:52:47;;;;;;;33.70;18.15;;;;;;;14.41;59.20;99365.84;4848943;29;20061;-65
2023/01/20 10:55:57;;;;;;;28.02;17.95;;;;;;;14.49;59.69;99373.63;4847834;29;20057;-62
2023/01/20 10:58:55;;;;;;;32.45;18.60;;;;;;;14.34;59.67;99363.91;4844696;29;20055;-65
2023/01/20 11:01:51;;;;;;;32.25;20.48;;;;;;;14.28;60.68;99372.75;4847843;29;20061;-65
2023/01/20 11:04:47;;;;;;;33.72;19.42;;;;;;;14.17;60.47;99367.13;4837473;29;20125;-62
2023/01/20 11:07:42;;;;;;;34.92;19.15;;;;;;;14.35;61.28;99378.94;4847450;29;20064;-65
2023/01/20 11:10:27;;;;;;;33.10;19.52;;;;;;;14.30;60.71;99376.00;4846240;29;20057;-67
2023/01/20 11:13:16;;;;;;;31.80;19.23;;;;;;;14.12;61.63;99377.56;4831269;29;20498;-65
2023/01/20 11:16:17;;;;;;;30.63;19.77;;;;;;;14.14;61.81;99380.88;4847105;29;20060;-63
2023/01/20 11:19:06;;;;;;;36.88;20.10;;;;;;;14.30;62.02;99381.34;4848555;29;20077;-63
2023/01/20 11:21:48;;;;;;;35.70;22.27;;;;;;;14.16;61.85;99384.16;4850198;29;20057;-66
2023/01/20 11:24:44;;;;;;;37.75;24.25;;;;;;;14.16;61.90;99390.28;4848854;29;20057;-65
2023/01/20 11:27:29;;;;;;;42.95;26.83;;;;;;;14.02;62.70;99387.78;4848891;29;20099;-63
2023/01/20 11:30:34;;;;;;;59.08;31.50;;;;;;;14.08;63.82;99390.47;4848008;29;20564;-64
2023/01/20 11:33:33;;;;;;;57.75;33.13;;;;;;;13.72;64.93;99395.22;4847750;29;20076;-64
2023/01/20 11:36:22;;;;;;;57.00;34.72;;;;;;;13.54;65.27;99401.03;4847886;29;20187;-66
2023/01/20 11:39:29;;;;;;;59.10;36.08;;;;;;;13.46;65.95;99388.66;4832599;29;20696;-63
2023/01/20 11:42:32;;;;;;;59.53;34.95;;;;;;;13.46;65.13;99391.34;4848119;29;20528;-68
2023/01/20 11:45:31;;;;;;;61.35;34.90;;;;;;;13.56;64.78;99398.16;4847566;29;20057;-67
2023/01/20 11:48:20;;;;;;;60.20;35.05;;;;;;;13.44;64.32;99396.03;4848674;29;20065;-62
2023/01/20 11:51:07;;;;;;;55.58;32.80;;;;;;;13.34;63.63;99400.03;4847555;29;20498;-64
2023/01/20 11:54:17;;;;;;;54.95;34.03;;;;;;;13.34;64.00;99400.03;4847843;29;20137;-63
2023/01/20 11:57:10;;;;;;;50.88;32.83;;;;;;;13.45;63.79;99397.66;4846006;29;20057;-65
2023/01/20 12:00:04;;;;;;;54.65;33.42;;;;;;;13.58;64.08;99402.28;4811176;29;20050;-62
2023/01/20 12:02:40;;;;;;;56.90;34.20;;;;;;;13.28;63.71;99406.94;4811547;29;20058;-63
2023/01/20 12:05:54;;;;;;;63.78;35.97;;;;;;;13.26;64.05;99410.84;4810553;29;20054;-62
2023/01/20 12:09:16;;;;;;;56.35;33.97;;;;;;;13.43;64.41;99417.50;4810404;29;20054;-63
2023/01/20 12:12:26;;;;;;;56.33;34.38;;;;;;;13.28;65.03;99414.94;4751990;30;20514;-60
2023/01/20 12:15:24;;;;;;;64.10;34.40;;;;;;;13.26;64.97;99418.81;4807221;29;20070;-61
2023/01/20 12:18:32;;;;;;;58.55;35.58;;;;;;;13.27;65.54;99420.47;4808631;29;20050;-60
2023/01/20 12:21:47;;;;;;;63.80;36.22;;;;;;;13.39;65.88;99417.09;4807502;29;20711;-63
2023/01/20 12:25:08;;;;;;;61.03;37.33;;;;;;;13.42;66.16;99423.84;4806095;29;20046;-62
2023/01/20 12:28:05;;;;;;;63.22;36.92;;;;;;;13.50;65.70;99423.69;4809084;29;20114;-62
2023/01/20 12:30:58;;;;;;;58.45;36.78;;;;;;;13.63;65.14;99428.31;4807425;29;20694;-63
2023/01/20 12:33:51;;;;;;;61.47;37.83;;;;;;;13.36;66.14;99429.94;4791281;29;20050;-63
2023/01/20 12:37:09;;;;;;;65.07;39.80;;;;;;;13.59;66.38;99429.69;4808803;29;20101;-63
2023/01/20 12:40:03;;;;;;;65.20;39.67;;;;;;;13.57;66.36;99431.75;4808290;29;20765;-63
2023/01/20 12:43:12;;;;;;;73.57;41.55;;;;;;;13.55;66.79;99436.41;4809661;29;20053;-63
2023/01/20 12:46:20;;;;;;;71.07;42.63;;;;;;;13.39;66.87;99434.88;4807344;29;20107;-62
2023/01/20 12:49:08;;;;;;;77.93;43.63;;;;;;;13.44;67.79;99448.44;4810534;29;20145;-63
2023/01/20 12:51:57;;;;;;;72.10;41.67;;;;;;;13.55;67.58;99445.22;4806388;29;20149;-62
2023/01/20 12:54:41;;;;;;;68.72;42.90;;;;;;;13.49;67.90;99446.84;4807046;29;20056;-65
2023/01/20 12:57:42;;;;;;;69.00;41.85;;;;;;;13.50;67.71;99451.13;4812047;29;20207;-62
2023/01/20 13:01:14;;;;;;;81.68;48.20;;;;;;;13.35;69.36;99461.06;4843715;29;20061;-62
2023/01/20 13:04:11;;;;;;;72.82;41.70;;;;;;;13.28;69.43;99454.00;4851773;29;20073;-62
2023/01/20 13:07:11;;;;;;;67.38;41.53;;;;;;;13.28;69.53;99456.66;4835977;29;20061;-65
2023/01/20 13:10:47;;;;;;;67.50;42.67;;;;;;;13.40;69.34;99460.47;4838411;29;20689;-64
2023/01/20 13:13:57;;;;;;;67.88;41.55;;;;;;;13.34;70.08;99454.09;4828705;29;20077;-64
2023/01/20 13:17:15;;;;;;;66.25;41.83;;;;;;;13.33;70.38;99457.75;4865168;29;20575;-61
2023/01/20 13:20:08;;;;;;;66.13;38.42;;;;;;;13.47;69.79;99456.84;4859461;29;20164;-65
2023/01/20 13:23:03;;;;;;;63.13;39.58;;;;;;;13.54;70.09;99456.09;4858147;29;20056;-63
2023/01/20 13:25:53;;;;;;;59.15;38.33;;;;;;;13.43;70.16;99457.44;4854589;29;20129;-62
2023/01/20 13:28:34;;;;;;;62.80;39.65;;;;;;;13.26;71.36;99448.91;4841718;29;20427;-61